Terminal Aerodrome Forecast
Issued by NWS Albany, NY

Home | Current Version | Previous Version | Text Only | Print | Product List | Glossary On
Versions: 1 2 3 4 5 6 7 8 9 10 11 12 13 14 15 16 17 18 19 20 21
000
FTUS41 KALY 170831 AAA
TAFALB
TAF AMD
KALB 170831Z 1709/1806 35003KT 1SM -SN VV015
      TEMPO 1709/1712 1/2SM SN VV007
     FM171500 32006KT 1 1/2SM -SN BKN006 OVC015
     FM171800 30008KT 3SM -SN BKN015 OVC025
     FM172100 29010KT P6SM SCT025 BKN050
     FM180000 28007KT P6SM SCT250=

USA.gov is the U.S. government's official web portal to all federal, state and local government web resources and services.